Time;durP1;ratioP1;P1;durP2;ratioP2;P2;SDS_P1;SDS_P2;PMS_P1;PMS_P2;Temp;Humidity;BMP_temperature;BMP_pressure;BME280_temperature;BME280_humidity;BME280_pressure;Samples;Min_cycle;Max_cycle;Signal;HPM_P1;HPM_P2
2023/03/21 00:00:41;;;;;;;;;56.25;46.00;;;;;13.73;42.18;99389.94;5088459;28;9622;-79
2023/03/21 00:03:21;;;;;;;;;64.00;51.50;;;;;13.74;42.02;99382.91;5073641;28;8958;-77
2023/03/21 00:05:52;;;;;;;;;56.25;47.25;;;;;13.74;41.91;99381.09;5087936;28;8867;-75
2023/03/21 00:08:23;;;;;;;;;61.00;48.50;;;;;13.72;42.27;99380.31;5071433;28;8828;-76
2023/03/21 00:10:58;;;;;;;;;61.25;49.00;;;;;13.77;42.33;99375.72;5087256;28;9771;-75
2023/03/21 00:13:31;;;;;;;;;56.50;47.00;;;;;13.68;42.18;99374.28;5070754;28;8847;-75
2023/03/21 00:16:05;;;;;;;;;54.25;44.50;;;;;13.15;43.76;99382.31;5087952;28;8962;-79
2023/03/21 00:18:51;;;;;;;;;53.25;45.50;;;;;13.15;43.44;99381.44;5086760;28;8886;-78
2023/03/21 00:21:27;;;;;;;;;50.25;40.00;;;;;13.20;43.52;99380.34;5086240;28;8827;-76
2023/03/21 00:24:16;;;;;;;;;58.00;47.00;;;;;13.28;43.18;99388.03;5083224;28;8822;-76
2023/03/21 00:26:46;;;;;;;;;54.25;46.25;;;;;13.28;42.84;99386.25;5100040;28;8869;-75
2023/03/21 00:29:15;;;;;;;;;48.25;40.25;;;;;13.26;43.07;99389.84;5067573;28;8873;-78
2023/03/21 00:31:47;;;;;;;;;56.75;46.25;;;;;13.22;43.21;99386.47;5082044;28;9584;-78
2023/03/21 00:34:16;;;;;;;;;59.25;45.75;;;;;13.09;43.83;99386.03;5067636;28;8850;-76
2023/03/21 00:37:01;;;;;;;;;58.50;47.00;;;;;13.09;43.42;99385.13;5047943;28;8834;-76
2023/03/21 00:39:30;;;;;;;;;54.25;44.50;;;;;12.97;43.75;99385.56;5082951;28;8870;-75
2023/03/21 00:42:01;;;;;;;;;52.25;42.75;;;;;12.92;43.81;99393.66;5083243;28;8846;-79
2023/03/21 00:44:35;;;;;;;;;55.50;45.00;;;;;12.74;44.33;99389.78;5066783;28;8838;-76
2023/03/21 00:47:04;;;;;;;;;54.50;44.25;;;;;12.57;44.75;99397.38;5066269;28;8890;-76
2023/03/21 00:49:37;;;;;;;;;54.25;45.25;;;;;12.47;44.82;99396.81;5082828;28;8846;-75
2023/03/21 00:52:08;;;;;;;;;56.50;45.50;;;;;12.50;45.10;99394.06;5096216;28;8855;-75
2023/03/21 00:54:52;;;;;;;;;54.00;44.75;;;;;12.64;44.71;99398.94;5086345;28;8989;-78
2023/03/21 00:57:22;;;;;;;;;52.25;44.25;;;;;12.67;44.35;99388.25;5069513;28;8878;-77
2023/03/21 01:00:09;;;;;;;;;51.50;42.75;;;;;12.24;45.65;99392.22;5069437;28;8850;-77
2023/03/21 01:02:55;;;;;;;;;55.50;46.25;;;;;12.01;46.67;99393.78;5067354;28;8996;-75
2023/03/21 01:06:05;;;;;;;;;57.00;46.75;;;;;11.33;48.78;99397.41;5050164;28;8862;-77
2023/03/21 01:08:35;;;;;;;;;56.00;45.25;;;;;11.85;46.56;99387.25;5104093;28;8893;-76
2023/03/21 01:11:23;;;;;;;;;55.25;45.50;;;;;12.05;46.44;99389.28;5069849;28;8889;-77
2023/03/21 01:13:54;;;;;;;;;56.00;46.50;;;;;11.92;47.08;99394.06;5091859;28;8866;-75
2023/03/21 01:16:42;;;;;;;;;52.50;43.25;;;;;12.11;46.30;99391.75;5066000;28;8850;-79
2023/03/21 01:19:14;;;;;;;;;54.25;45.50;;;;;11.88;46.48;99381.88;5082742;28;8951;-77
2023/03/21 01:21:54;;;;;;;;;57.50;46.00;;;;;12.08;46.03;99381.31;5100098;28;8884;-76
2023/03/21 01:24:23;;;;;;;;;56.00;46.50;;;;;12.20;45.83;99374.78;5084574;28;8839;-75
2023/03/21 01:26:52;;;;;;;;;51.50;44.00;;;;;12.11;46.17;99368.91;5087235;28;8847;-76
2023/03/21 01:29:22;;;;;;;;;51.25;44.25;;;;;12.22;45.94;99367.69;5090042;28;8898;-77
2023/03/21 01:31:51;;;;;;;;;54.25;46.50;;;;;12.10;46.24;99368.94;5073085;28;9064;-76
2023/03/21 01:34:20;;;;;;;;;56.50;47.00;;;;;12.17;45.77;99367.00;5089848;28;8846;-75
2023/03/21 01:36:49;;;;;;;;;53.25;43.50;;;;;12.21;46.01;99366.00;5089311;28;8852;-75
2023/03/21 01:39:21;;;;;;;;;52.75;43.75;;;;;12.25;45.64;99364.97;5036098;28;8842;-77
2023/03/21 01:41:51;;;;;;;;;54.25;44.25;;;;;12.26;45.23;99359.66;5065121;28;8826;-77
2023/03/21 01:44:28;;;;;;;;;52.50;43.75;;;;;12.32;45.53;99358.63;5086630;28;8846;-78
2023/03/21 01:46:58;;;;;;;;;53.00;41.50;;;;;12.32;45.67;99351.56;5053323;28;8850;-76
2023/03/21 01:49:44;;;;;;;;;52.75;42.25;;;;;12.22;45.79;99347.50;5069515;28;8896;-80
2023/03/21 01:52:23;;;;;;;;;51.50;43.50;;;;;12.23;45.44;99345.72;5069094;28;8943;-76
2023/03/21 01:55:15;;;;;;;;;57.00;46.50;;;;;12.28;45.43;99349.94;5040486;28;8846;-75
2023/03/21 01:58:22;;;;;;;;;52.75;44.75;;;;;12.20;45.69;99348.44;5046948;28;8866;-77
2023/03/21 02:01:23;;;;;;;;;50.00;42.75;;;;;12.24;45.27;99342.16;5007972;28;8859;-76
2023/03/21 02:03:56;;;;;;;;;56.75;45.25;;;;;12.04;46.10;99350.69;5008030;28;8873;-75
2023/03/21 02:06:35;;;;;;;;;55.50;45.25;;;;;12.08;46.09;99347.91;5007750;28;8893;-75
2023/03/21 02:09:32;;;;;;;;;54.50;45.25;;;;;12.11;45.63;99342.56;4949490;28;8887;-76
2023/03/21 02:12:02;;;;;;;;;55.25;44.50;;;;;12.04;45.51;99338.38;4949702;28;8875;-75
2023/03/21 02:14:36;;;;;;;;;48.00;42.00;;;;;12.04;45.78;99337.53;4949122;28;8865;-76
2023/03/21 02:17:25;;;;;;;;;53.50;44.25;;;;;12.09;45.57;99328.56;4949512;28;9304;-76
2023/03/21 02:20:25;;;;;;;;;51.00;43.75;;;;;12.13;45.52;99326.69;4949478;28;8935;-77
2023/03/21 02:23:33;;;;;;;;;56.75;46.00;;;;;12.14;45.62;99315.25;4933672;28;8901;-76
2023/03/21 02:26:26;;;;;;;;;56.75;44.00;;;;;12.10;45.73;99311.84;4949694;28;8865;-77
2023/03/21 02:29:31;;;;;;;;;57.00;47.00;;;;;12.04;45.67;99311.19;4878624;29;8969;-76
2023/03/21 02:32:12;;;;;;;;;54.00;45.00;;;;;11.92;46.14;99315.06;4909549;29;8911;-75
2023/03/21 02:35:19;;;;;;;;;60.50;47.25;;;;;11.94;46.30;99316.72;4910923;29;8950;-77
2023/03/21 02:37:58;;;;;;;;;59.25;45.75;;;;;11.90;46.42;99319.47;4907785;29;8901;-76
2023/03/21 02:40:35;;;;;;;;;56.75;47.25;;;;;11.82;46.27;99318.81;4907112;29;8881;-78
2023/03/21 02:43:10;;;;;;;;;58.00;47.75;;;;;11.73;46.52;99315.56;4892014;29;8994;-76
2023/03/21 02:45:54;;;;;;;;;58.00;48.75;;;;;11.70;46.75;99323.53;4920341;28;8963;-77
2023/03/21 02:48:31;;;;;;;;;54.00;45.75;;;;;11.72;46.56;99312.97;5006881;28;8859;-76
2023/03/21 02:51:22;;;;;;;;;56.25;46.25;;;;;11.64;47.12;99312.34;4971861;28;9661;-76
2023/03/21 02:53:58;;;;;;;;;57.75;48.75;;;;;11.57;47.47;99312.50;4982587;28;8852;-74
2023/03/21 02:56:49;;;;;;;;;59.00;46.75;;;;;11.55;47.23;99329.25;4964828;28;8922;-76
2023/03/21 02:59:21;;;;;;;;;59.75;47.75;;;;;11.53;47.55;99334.56;4971367;28;8868;-75
2023/03/21 03:01:52;;;;;;;;;60.75;49.00;;;;;11.50;47.37;99332.03;4970249;28;8995;-77
2023/03/21 03:04:23;;;;;;;;;61.00;51.00;;;;;11.48;47.30;99332.97;4997340;28;8852;-75
2023/03/21 03:07:27;;;;;;;;;54.00;44.75;;;;;11.66;47.14;99324.53;5049184;28;8892;-77
2023/03/21 03:10:11;;;;;;;;;62.25;49.50;;;;;11.57;47.52;99330.06;4974437;28;8867;-76
2023/03/21 03:12:50;;;;;;;;;57.00;47.50;;;;;11.55;47.14;99330.09;5017482;28;8859;-77
2023/03/21 03:15:28;;;;;;;;;49.75;41.00;;;;;11.54;47.28;99332.78;4942086;28;8871;-76
2023/03/21 03:18:09;;;;;;;;;59.75;48.00;;;;;11.56;47.48;99341.53;4974239;28;8887;-76
2023/03/21 03:20:50;;;;;;;;;56.75;46.75;;;;;11.64;47.33;99334.25;4943963;28;8902;-77
2023/03/21 03:23:28;;;;;;;;;58.25;48.25;;;;;11.66;47.23;99332.44;5026203;28;8880;-75
2023/03/21 03:26:05;;;;;;;;;54.75;44.50;;;;;11.62;47.17;99327.31;5009799;28;8865;-76
2023/03/21 03:28:39;;;;;;;;;58.75;47.25;;;;;11.56;47.39;99325.72;5026056;28;8892;-75
2023/03/21 03:31:20;;;;;;;;;55.00;46.25;;;;;11.60;47.28;99318.56;5026049;28;8880;-74
2023/03/21 03:33:58;;;;;;;;;60.75;49.75;;;;;11.58;47.25;99331.81;5009221;28;8934;-76
2023/03/21 03:36:34;;;;;;;;;52.75;42.75;;;;;11.58;47.32;99331.81;4993778;28;8983;-77
2023/03/21 03:39:13;;;;;;;;;55.25;46.50;;;;;11.59;47.38;99340.56;5008704;28;8946;-75
2023/03/21 03:41:56;;;;;;;;;60.00;48.75;;;;;11.51;47.54;99335.50;4994345;28;8865;-77
2023/03/21 03:44:49;;;;;;;;;59.75;49.00;;;;;11.47;47.72;99332.09;4992986;28;9086;-77
2023/03/21 03:47:24;;;;;;;;;60.75;48.75;;;;;11.48;47.37;99325.94;5071699;28;8858;-77
2023/03/21 03:50:10;;;;;;;;;62.50;51.00;;;;;11.41;47.56;99331.41;5083241;28;8846;-76
2023/03/21 03:52:45;;;;;;;;;59.25;49.75;;;;;11.38;48.06;99329.72;5033283;28;8850;-76
2023/03/21 03:55:33;;;;;;;;;58.00;47.75;;;;;11.33;48.08;99337.75;5066729;28;9631;-75
2023/03/21 03:58:11;;;;;;;;;59.50;47.50;;;;;11.35;47.70;99329.78;5066296;28;8996;-76
2023/03/21 04:00:52;;;;;;;;;58.75;46.75;;;;;11.33;48.05;99327.22;5083382;28;8985;-77
2023/03/21 04:03:22;;;;;;;;;62.00;48.75;;;;;11.29;48.18;99327.34;5082753;28;8850;-76
2023/03/21 04:05:52;;;;;;;;;57.25;47.50;;;;;11.30;48.01;99327.31;5049909;28;8874;-76
2023/03/21 04:08:22;;;;;;;;;53.50;45.25;;;;;11.32;48.21;99330.75;5066809;28;8854;-75
2023/03/21 04:10:54;;;;;;;;;63.00;51.25;;;;;11.31;48.37;99320.25;5066751;28;8884;-77
2023/03/21 04:13:26;;;;;;;;;58.00;48.00;;;;;11.31;48.37;99326.41;5081385;28;8847;-76
2023/03/21 04:16:15;;;;;;;;;58.25;47.25;;;;;11.35;47.99;99327.16;5086578;28;8871;-76
2023/03/21 04:18:45;;;;;;;;;58.50;48.75;;;;;11.36;47.79;99327.13;5059925;28;9712;-77
2023/03/21 04:21:14;;;;;;;;;69.25;52.75;;;;;11.34;47.93;99326.31;5068256;28;8862;-76
2023/03/21 04:23:44;;;;;;;;;85.50;70.00;;;;;11.31;47.60;99329.03;5083436;28;8870;-75
2023/03/21 04:26:13;;;;;;;;;72.00;58.33;;;;;11.32;47.74;99329.91;5048785;28;10227;-75
2023/03/21 04:29:03;;;;;;;;;61.50;49.75;;;;;11.37;47.76;99343.81;5066320;28;9473;-75
2023/03/21 04:31:52;;;;;;;;;58.50;49.25;;;;;11.40;47.87;99342.84;5068938;28;8839;-76
2023/03/21 04:34:22;;;;;;;;;59.50;50.25;;;;;11.41;47.66;99344.56;5067611;28;8862;-76
2023/03/21 04:36:56;;;;;;;;;57.00;47.75;;;;;11.40;47.70;99335.81;5049901;28;8876;-76
2023/03/21 04:39:25;;;;;;;;;59.25;48.75;;;;;11.41;47.69;99337.53;5068421;28;8830;-76
2023/03/21 04:41:55;;;;;;;;;58.50;46.75;;;;;11.43;47.62;99337.50;5061587;28;9024;-75
2023/03/21 04:44:26;;;;;;;;;59.25;49.00;;;;;11.42;47.59;99336.63;5068687;28;8861;-77
2023/03/21 04:46:54;;;;;;;;;70.75;57.25;;;;;11.45;47.74;99341.81;5091882;28;8933;-74
2023/03/21 04:49:23;;;;;;;;;142.75;122.75;;;;;11.49;47.40;99343.44;5086531;28;8844;-75
2023/03/21 04:51:52;;;;;;;;;71.75;55.75;;;;;11.53;47.79;99345.09;5069910;28;11776;-75
2023/03/21 04:54:21;;;;;;;;;60.75;51.00;;;;;11.53;47.39;99342.44;5069609;28;8861;-77
2023/03/21 04:56:50;;;;;;;;;58.00;47.25;;;;;11.54;47.67;99343.31;5069746;28;8990;-77
2023/03/21 04:59:20;;;;;;;;;61.50;50.25;;;;;11.53;47.57;99346.88;5083498;28;9658;-75
2023/03/21 05:01:50;;;;;;;;;60.25;48.00;;;;;11.54;47.39;99348.56;5050258;28;8908;-76
2023/03/21 05:04:19;;;;;;;;;54.75;45.50;;;;;11.53;47.51;99339.81;5086748;28;8858;-78
2023/03/21 05:06:48;;;;;;;;;59.75;49.00;;;;;11.52;47.22;99342.50;5089096;28;9601;-78
2023/03/21 05:09:17;;;;;;;;;61.75;50.50;;;;;11.51;47.25;99346.03;5073516;28;9080;-77
2023/03/21 05:11:46;;;;;;;;;86.75;74.00;;;;;11.53;47.50;99352.13;5073506;28;8867;-78
2023/03/21 05:14:18;;;;;;;;;60.50;49.00;;;;;11.53;47.45;99345.09;5073281;28;10042;-76
2023/03/21 05:16:51;;;;;;;;;57.50;47.75;;;;;11.56;47.31;99352.91;5039977;28;8867;-75
2023/03/21 05:19:33;;;;;;;;;63.50;51.00;;;;;11.64;47.21;99347.41;5089131;28;8904;-77
2023/03/21 05:22:06;;;;;;;;;58.75;47.75;;;;;11.54;47.80;99359.97;5025588;28;9003;-78
2023/03/21 05:24:38;;;;;;;;;58.25;48.75;;;;;11.65;47.40;99356.19;5090291;28;8835;-77
2023/03/21 05:27:09;;;;;;;;;60.25;49.00;;;;;11.66;47.41;99355.28;5073889;28;8866;-76
2023/03/21 05:29:45;;;;;;;;;58.50;49.00;;;;;11.67;47.11;99357.00;5107132;28;8855;-78
2023/03/21 05:32:14;;;;;;;;;98.25;91.00;;;;;11.69;46.99;99353.44;5089861;28;8863;-75
2023/03/21 05:34:44;;;;;;;;;103.00;93.00;;;;;11.73;47.47;99349.78;5105618;28;11276;-77
2023/03/21 05:37:13;;;;;;;;;65.00;52.00;;;;;11.53;47.67;99354.75;5072887;28;11837;-76
2023/03/21 05:39:49;;;;;;;;;60.25;50.50;;;;;11.52;47.79;99361.81;5106966;28;8921;-77
2023/03/21 05:42:25;;;;;;;;;58.00;49.00;;;;;11.59;47.84;99349.31;5124125;27;8856;-77
2023/03/21 05:44:55;;;;;;;;;64.50;52.25;;;;;11.60;47.60;99355.44;5070884;28;10024;-76
2023/03/21 05:47:31;;;;;;;;;57.75;49.00;;;;;11.62;47.61;99361.53;5054814;28;8822;-79
2023/03/21 05:50:03;;;;;;;;;64.50;50.25;;;;;11.62;48.03;99361.53;5018585;28;8834;-76
2023/03/21 05:52:33;;;;;;;;;64.00;51.50;;;;;11.68;47.55;99364.00;5059000;28;8851;-77
2023/03/21 05:55:10;;;;;;;;;64.00;52.25;;;;;11.27;48.73;99363.38;5091761;28;8870;-78
2023/03/21 05:57:39;;;;;;;;;66.00;53.25;;;;;11.48;48.59;99361.91;5074904;28;8863;-78
2023/03/21 06:00:24;;;;;;;;;55.75;46.75;;;;;11.63;47.49;99358.00;5059473;28;8858;-75
2023/03/21 06:03:11;;;;;;;;;61.25;48.75;;;;;11.75;47.53;99357.66;5071451;28;8899;-75
2023/03/21 06:06:06;;;;;;;;;58.25;47.50;;;;;11.56;48.22;99354.69;5069655;28;8854;-78
2023/03/21 06:08:43;;;;;;;;;62.75;50.00;;;;;11.30;48.49;99358.88;5016615;28;8863;-79
2023/03/21 06:11:23;;;;;;;;;50.25;41.00;;;;;11.52;48.29;99360.91;5035578;28;8860;-77
2023/03/21 06:13:56;;;;;;;;;56.25;47.50;;;;;11.45;48.30;99351.47;5065762;28;8847;-78
2023/03/21 06:16:27;;;;;;;;;60.50;50.00;;;;;11.51;48.27;99356.56;5087286;28;8880;-77
2023/03/21 06:18:56;;;;;;;;;55.00;46.50;;;;;11.65;48.27;99366.72;5021123;28;8853;-79
2023/03/21 06:21:39;;;;;;;;;53.75;43.75;;;;;11.46;48.80;99366.34;5070786;28;8842;-79
2023/03/21 06:24:10;;;;;;;;;58.00;48.00;;;;;11.50;48.67;99368.00;5088520;28;8878;-78
2023/03/21 06:26:42;;;;;;;;;56.50;47.25;;;;;11.49;48.84;99363.66;5089580;28;8862;-76
2023/03/21 06:29:12;;;;;;;;;61.00;49.75;;;;;11.69;48.14;99358.69;5064368;28;8870;-77
2023/03/21 06:31:47;;;;;;;;;56.25;48.00;;;;;11.73;48.65;99362.97;5066504;28;8932;-80
2023/03/21 06:34:17;;;;;;;;;59.00;47.75;;;;;11.77;48.52;99364.59;5046032;28;8912;-79
2023/03/21 06:36:47;;;;;;;;;64.50;51.00;;;;;11.15;49.82;99365.41;5031504;28;10111;-77
2023/03/21 06:39:18;;;;;;;;;53.75;45.00;;;;;11.30;49.99;99361.50;5030617;28;8951;-73
2023/03/21 06:41:48;;;;;;;;;57.50;49.00;;;;;11.04;51.10;99350.81;4990688;28;8968;-73
2023/03/21 06:44:17;;;;;;;;;53.50;44.75;;;;;11.32;50.19;99364.97;4952051;28;8901;-78
2023/03/21 06:46:55;;;;;;;;;60.75;50.25;;;;;10.78;52.02;99368.09;4952886;28;8872;-80
2023/03/21 06:49:26;;;;;;;;;50.00;38.75;;;;;11.08;50.84;99366.47;4975978;28;8895;-78
2023/03/21 06:52:00;;;;;;;;;58.25;46.25;;;;;11.14;50.69;99373.34;4956844;28;8872;-77
2023/03/21 06:54:29;;;;;;;;;54.50;43.50;;;;;11.01;51.54;99371.94;4971938;28;9694;-78
2023/03/21 06:57:02;;;;;;;;;57.50;47.00;;;;;10.66;52.76;99381.53;4957449;28;8860;-77
2023/03/21 06:59:34;;;;;;;;;57.00;45.25;;;;;11.18;51.60;99374.97;4971377;28;8867;-78
2023/03/21 07:02:07;;;;;;;;;57.00;44.00;;;;;11.31;50.65;99378.16;4987486;28;8977;-80
2023/03/21 07:04:40;;;;;;;;;54.25;43.50;;;;;11.54;50.42;99378.41;4978069;28;8826;-80
2023/03/21 07:07:16;;;;;;;;;54.00;44.75;;;;;11.73;49.76;99372.63;5010151;28;8850;-79
2023/03/21 07:09:45;;;;;;;;;52.50;44.50;;;;;11.69;49.54;99376.25;5029105;28;8893;-78
2023/03/21 07:12:14;;;;;;;;;54.00;44.25;;;;;11.89;49.83;99373.06;5036723;28;8844;-78
2023/03/21 07:15:04;;;;;;;;;54.50;44.25;;;;;12.14;48.74;99373.19;5025392;28;8848;-80
2023/03/21 07:17:33;;;;;;;;;56.00;45.25;;;;;12.34;48.21;99368.19;5033678;28;8848;-77
2023/03/21 07:20:03;;;;;;;;;57.50;45.75;;;;;12.59;48.17;99372.69;5048421;28;8865;-79
2023/03/21 07:22:36;;;;;;;;;52.00;42.25;;;;;12.13;49.14;99364.44;5072955;28;8911;-80
2023/03/21 07:25:06;;;;;;;;;53.50;44.00;;;;;12.27;48.46;99366.66;5083866;28;8862;-81
2023/03/21 07:27:41;;;;;;;;;52.25;43.75;;;;;12.61;47.84;99364.72;5067530;28;8866;-79
2023/03/21 07:30:11;;;;;;;;;51.75;43.00;;;;;12.90;47.43;99367.31;5072408;28;8901;-79
2023/03/21 07:32:40;;;;;;;;;52.50;41.50;;;;;13.06;46.85;99375.56;5038602;28;8842;-79
2023/03/21 07:35:12;;;;;;;;;55.75;46.75;;;;;12.11;48.93;99373.31;5067910;28;8978;-78
2023/03/21 07:37:44;;;;;;;;;50.25;40.75;;;;;11.72;50.30;99379.66;5066416;28;8876;-80
2023/03/21 07:40:17;;;;;;;;;53.75;44.50;;;;;11.50;51.63;99378.53;5062712;28;8850;-80
2023/03/21 07:42:49;;;;;;;;;49.75;42.00;;;;;10.45;54.93;99393.41;5078589;28;8840;-79
2023/03/21 07:45:29;;;;;;;;;53.75;45.00;;;;;10.48;55.54;99383.72;5072807;28;8959;-78
2023/03/21 07:47:58;;;;;;;;;50.25;41.25;;;;;11.10;53.35;99379.59;5040526;28;8843;-80
2023/03/21 07:50:27;;;;;;;;;52.50;43.00;;;;;11.51;52.11;99373.22;5089776;28;8983;-79
2023/03/21 07:52:57;;;;;;;;;52.00;42.75;;;;;11.74;51.60;99377.84;5082095;28;8850;-78
2023/03/21 07:55:26;;;;;;;;;53.00;43.25;;;;;12.18;50.76;99368.72;5086326;28;9001;-78
2023/03/21 07:57:55;;;;;;;;;51.25;43.00;;;;;12.46;49.66;99363.44;5080753;28;8913;-79
2023/03/21 08:00:25;;;;;;;;;52.75;44.50;;;;;12.12;50.70;99365.34;5068318;28;8916;-79
2023/03/21 08:02:56;;;;;;;;;52.50;43.00;;;;;12.61;49.25;99368.22;5067344;28;8866;-79
2023/03/21 08:05:29;;;;;;;;;56.00;45.75;;;;;12.07;50.85;99369.91;5068402;28;8843;-79
2023/03/21 08:07:59;;;;;;;;;45.00;39.50;;;;;12.61;49.15;99370.88;5067411;28;8935;-78
2023/03/21 08:10:28;;;;;;;;;49.75;41.50;;;;;12.17;50.61;99367.00;5067990;28;8866;-79
2023/03/21 08:12:57;;;;;;;;;45.75;39.00;;;;;12.50;49.95;99371.22;5071628;28;8846;-78
2023/03/21 08:15:26;;;;;;;;;48.50;42.25;;;;;12.10;51.03;99377.69;5092490;28;8977;-77
2023/03/21 08:17:56;;;;;;;;;51.75;42.00;;;;;11.76;52.56;99381.28;5050382;28;9001;-79
2023/03/21 08:20:24;;;;;;;;;55.00;45.25;;;;;12.19;50.72;99375.72;5084415;28;8851;-80
2023/03/21 08:22:53;;;;;;;;;52.75;44.25;;;;;11.83;51.78;99386.44;5101037;28;8881;-79
2023/03/21 08:25:24;;;;;;;;;52.25;42.75;;;;;11.62;53.30;99375.56;5049799;28;8851;-77
2023/03/21 08:27:53;;;;;;;;;47.25;40.00;;;;;12.23;51.55;99366.81;5066810;28;8874;-79
2023/03/21 08:30:24;;;;;;;;;49.75;41.25;;;;;12.50;50.56;99367.72;5068426;28;8850;-79
2023/03/21 08:32:57;;;;;;;;;50.25;41.00;;;;;12.12;51.27;99375.03;5068130;28;8866;-82
2023/03/21 08:35:30;;;;;;;;;56.25;46.00;;;;;12.04;51.85;99369.13;5101910;28;8853;-79
2023/03/21 08:38:00;;;;;;;;;42.75;37.75;;;;;12.54;50.67;99366.69;5067610;28;8858;-80
2023/03/21 08:40:30;;;;;;;;;54.25;43.00;;;;;13.03;49.75;99370.38;5067834;28;9001;-78
2023/03/21 08:42:59;;;;;;;;;37.00;35.25;;;;;12.98;49.48;99369.69;5049226;28;8978;-80
2023/03/21 08:45:28;;;;;;;;;52.25;43.00;;;;;12.85;49.40;99373.66;5067788;28;8850;-80
2023/03/21 08:47:57;;;;;;;;;51.00;42.50;;;;;11.64;53.26;99378.16;5067545;28;8865;-79
2023/03/21 08:50:28;;;;;;;;;53.50;44.75;;;;;11.25;54.90;99380.97;5067830;28;9094;-79
2023/03/21 08:52:57;;;;;;;;;52.00;40.75;;;;;10.93;56.42;99380.03;5025342;28;8856;-80
2023/03/21 08:55:26;;;;;;;;;52.75;43.75;;;;;11.33;55.72;99378.97;5025465;28;9606;-79
2023/03/21 08:57:57;;;;;;;;;44.50;39.00;;;;;11.65;54.76;99375.47;5009069;28;8841;-79
2023/03/21 09:00:26;;;;;;;;;48.25;40.00;;;;;12.06;53.57;99368.16;5044748;28;8850;-79
2023/03/21 09:02:57;;;;;;;;;50.50;40.25;;;;;11.62;54.51;99379.97;5045539;28;9009;-79
2023/03/21 09:05:27;;;;;;;;;48.50;41.25;;;;;11.17;56.11;99382.00;5028384;28;8885;-78
2023/03/21 09:07:56;;;;;;;;;35.25;32.00;;;;;11.00;56.43;99378.97;5011916;28;8878;-79
2023/03/21 09:10:25;;;;;;;;;49.00;39.00;;;;;10.96;56.75;99380.81;5045010;28;8858;-79
2023/03/21 09:12:56;;;;;;;;;46.50;39.00;;;;;10.96;56.15;99374.69;5044991;28;8861;-79
2023/03/21 09:15:28;;;;;;;;;46.75;40.00;;;;;11.08;56.67;99377.00;5045105;28;8896;-79
2023/03/21 09:18:11;;;;;;;;;52.25;43.50;;;;;11.92;54.49;99368.59;5044887;28;8936;-79
2023/03/21 09:20:41;;;;;;;;;51.25;42.00;;;;;11.73;55.22;99362.97;4979724;28;8877;-78
2023/03/21 09:23:12;;;;;;;;;50.25;42.75;;;;;11.97;53.19;99360.53;5028439;28;8955;-80
2023/03/21 09:25:41;;;;;;;;;51.25;42.50;;;;;12.53;51.94;99359.72;5044985;28;8865;-80
2023/03/21 09:28:12;;;;;;;;;52.75;42.25;;;;;13.06;50.08;99364.16;5045258;28;8842;-78
2023/03/21 09:30:41;;;;;;;;;44.75;39.25;;;;;12.80;49.95;99357.09;5067303;28;8871;-80
2023/03/21 09:33:11;;;;;;;;;49.00;39.50;;;;;12.61;50.62;99357.69;5087715;28;8928;-79
2023/03/21 09:35:41;;;;;;;;;47.75;40.00;;;;;12.28;50.05;99349.94;5075333;28;8940;-79
2023/03/21 09:38:10;;;;;;;;;47.00;38.75;;;;;12.07;51.32;99353.22;5067745;28;8874;-80
2023/03/21 09:41:04;;;;;;;;;49.25;40.25;;;;;11.84;52.83;99353.91;5067371;28;8889;-80
2023/03/21 09:43:49;;;;;;;;;43.00;37.75;;;;;12.03;52.04;99346.31;5065868;28;8879;-78
2023/03/21 09:46:27;;;;;;;;;43.50;38.75;;;;;12.22;51.71;99346.63;5065782;28;8962;-79
2023/03/21 09:49:01;;;;;;;;;48.00;40.50;;;;;12.03;52.90;99349.84;5068464;28;8885;-78
2023/03/21 09:51:35;;;;;;;;;50.25;39.75;;;;;11.84;53.71;99338.09;5069893;28;8870;-80
2023/03/21 09:54:11;;;;;;;;;47.25;41.25;;;;;12.23;53.11;99340.44;5070007;28;8846;-79
2023/03/21 09:56:43;;;;;;;;;50.50;43.25;;;;;12.56;52.33;99338.53;5070286;28;8882;-78
2023/03/21 09:59:22;;;;;;;;;46.00;40.50;;;;;13.42;50.09;99334.75;5059587;28;8881;-81
2023/03/21 10:01:51;;;;;;;;;49.50;42.00;;;;;13.13;50.01;99331.38;5080225;28;9028;-80
2023/03/21 10:04:21;;;;;;;;;42.25;37.75;;;;;12.73;51.45;99333.56;5069636;28;9607;-79
2023/03/21 10:06:57;;;;;;;;;46.50;39.25;;;;;13.61;48.76;99327.00;5071275;28;8854;-79
2023/03/21 10:09:28;;;;;;;;;44.00;37.75;;;;;13.97;47.28;99316.84;5069354;28;8854;-79
2023/03/21 10:12:03;;;;;;;;;40.25;35.25;;;;;14.58;46.60;99316.19;5069306;28;9005;-79
2023/03/21 10:14:39;;;;;;;;;44.25;38.00;;;;;14.17;45.77;99326.66;5068911;28;8864;-79
2023/03/21 10:17:22;;;;;;;;;44.25;37.75;;;;;13.31;48.07;99324.56;5068937;28;8846;-79
2023/03/21 10:20:09;;;;;;;;;48.75;39.50;;;;;13.30;47.76;99330.78;5022124;28;8830;-80
2023/03/21 10:22:40;;;;;;;;;37.75;35.50;;;;;13.52;45.84;99320.28;5069041;28;9729;-80
2023/03/21 10:25:15;;;;;;;;;36.25;32.00;;;;;13.23;45.83;99327.47;5070337;28;8873;-79
2023/03/21 10:27:45;;;;;;;;;44.75;38.00;;;;;13.21;46.13;99321.41;5069947;28;8869;-80
2023/03/21 10:30:26;;;;;;;;;45.00;37.00;;;;;13.33;46.56;99321.88;5069151;28;8873;-80
2023/03/21 10:32:57;;;;;;;;;45.75;37.75;;;;;13.00;48.17;99330.06;5069022;28;11050;-80
2023/03/21 10:35:27;;;;;;;;;44.25;37.75;;;;;12.76;49.60;99323.81;5070493;28;8865;-81
2023/03/21 10:37:56;;;;;;;;;46.50;39.00;;;;;12.85;50.28;99316.47;5070601;28;8862;-80
2023/03/21 10:40:25;;;;;;;;;50.50;42.75;;;;;13.34;48.84;99318.34;5070490;28;8846;-80
2023/03/21 10:42:55;;;;;;;;;41.75;37.50;;;;;13.24;48.96;99312.50;5085651;28;8846;-80
2023/03/21 10:45:26;;;;;;;;;43.25;37.25;;;;;13.18;48.36;99325.91;5068620;28;8865;-78
2023/03/21 10:47:56;;;;;;;;;37.75;35.75;;;;;13.14;48.22;99316.38;5051468;28;8862;-78
2023/03/21 10:50:30;;;;;;;;;41.50;36.25;;;;;13.12;48.08;99308.53;5068365;28;8838;-79
2023/03/21 10:53:00;;;;;;;;;47.75;39.00;;;;;13.49;47.42;99309.84;5069222;28;8977;-79
2023/03/21 10:55:31;;;;;;;;;38.75;36.25;;;;;13.12;47.55;99317.28;5069340;28;8857;-79
2023/03/21 10:58:07;;;;;;;;;47.00;38.00;;;;;13.47;47.10;99316.97;5067826;28;8862;-77
2023/03/21 11:00:40;;;;;;;;;41.75;36.25;;;;;13.12;48.50;99306.72;5066977;28;8962;-78
2023/03/21 11:03:21;;;;;;;;;49.75;41.50;;;;;13.62;47.80;99300.56;5069022;28;8959;-78
2023/03/21 11:05:55;;;;;;;;;42.50;37.75;;;;;13.82;47.27;99291.88;5050541;28;8835;-78
2023/03/21 11:08:26;;;;;;;;;44.25;37.50;;;;;13.61;48.13;99293.53;5067816;28;8854;-79
2023/03/21 11:11:02;;;;;;;;;37.50;34.75;;;;;13.80;47.52;99290.19;5067774;28;8851;-77
2023/03/21 11:13:36;;;;;;;;;38.75;35.50;;;;;13.85;46.54;99286.50;5069227;28;8878;-80
2023/03/21 11:16:09;;;;;;;;;45.50;39.50;;;;;14.13;45.79;99282.78;5069425;28;8955;-78
2023/03/21 11:18:43;;;;;;;;;45.50;38.00;;;;;14.44;44.22;99279.72;5068091;28;9012;-80
2023/03/21 11:21:15;;;;;;;;;40.00;35.50;;;;;14.68;43.26;99279.66;5069272;28;9596;-79
2023/03/21 11:23:46;;;;;;;;;42.00;35.50;;;;;15.41;42.03;99274.72;5087130;28;8863;-80
2023/03/21 11:26:22;;;;;;;;;43.25;37.25;;;;;15.33;41.80;99268.91;5104920;28;8840;-78
2023/03/21 11:28:52;;;;;;;;;42.75;37.00;;;;;15.42;41.73;99261.41;5089535;28;8859;-78
2023/03/21 11:31:23;;;;;;;;;42.00;36.00;;;;;15.28;41.41;99263.81;5089004;28;8824;-78
2023/03/21 11:33:55;;;;;;;;;41.00;34.75;;;;;15.56;40.71;99254.63;5089391;28;8873;-79
2023/03/21 11:36:32;;;;;;;;;35.50;31.75;;;;;15.30;40.24;99259.31;5088071;28;8847;-78
2023/03/21 11:39:14;;;;;;;;;33.75;32.25;;;;;14.61;42.21;99259.66;5089348;28;8860;-79
2023/03/21 11:41:47;;;;;;;;;36.00;32.25;;;;;14.48;42.54;99260.16;5087606;28;8836;-79
2023/03/21 11:44:28;;;;;;;;;38.00;34.75;;;;;14.78;42.23;99245.75;5089600;28;8863;-80
2023/03/21 11:46:59;;;;;;;;;40.25;36.50;;;;;14.77;41.50;99250.19;5103967;28;8836;-80
2023/03/21 11:49:28;;;;;;;;;33.75;31.75;;;;;14.93;39.98;99241.59;5055138;28;8840;-80
2023/03/21 11:52:14;;;;;;;;;37.25;32.25;;;;;14.79;39.96;99240.41;5085991;28;8854;-79
2023/03/21 11:55:05;;;;;;;;;36.50;33.75;;;;;14.92;39.89;99234.56;5068702;28;8993;-79
2023/03/21 11:57:44;;;;;;;;;34.25;31.00;;;;;14.62;40.92;99232.28;5068799;28;8872;-77
2023/03/21 12:00:21;;;;;;;;;34.75;32.25;;;;;15.58;39.57;99229.75;5068763;28;8855;-80